sensor_id;sensor_type;location;lat;lon;timestamp;P1;durP1;ratioP1;P2;durP2;ratioP2
30335;SDS011;17142;47.990;7.846;2023-07-08T00:01:14;7.07;;;3.47;;
30335;SDS011;17142;47.990;7.846;2023-07-08T00:03:44;7.80;;;4.17;;
30335;SDS011;17142;47.990;7.846;2023-07-08T00:06:14;6.57;;;2.97;;
30335;SDS011;17142;47.990;7.846;2023-07-08T00:08:45;6.77;;;3.30;;
30335;SDS011;17142;47.990;7.846;2023-07-08T00:11:13;7.20;;;3.90;;
30335;SDS011;17142;47.990;7.846;2023-07-08T00:13:42;5.83;;;3.73;;
30335;SDS011;17142;47.990;7.846;2023-07-08T00:16:12;7.63;;;3.33;;
30335;SDS011;17142;47.990;7.846;2023-07-08T00:18:39;3.87;;;2.87;;
30335;SDS011;17142;47.990;7.846;2023-07-08T00:21:08;8.10;;;4.53;;
30335;SDS011;17142;47.990;7.846;2023-07-08T00:23:39;8.00;;;3.53;;
30335;SDS011;17142;47.990;7.846;2023-07-08T00:26:19;6.77;;;3.50;;
30335;SDS011;17142;47.990;7.846;2023-07-08T00:28:55;8.73;;;3.60;;
30335;SDS011;17142;47.990;7.846;2023-07-08T00:31:22;7.77;;;3.40;;
30335;SDS011;17142;47.990;7.846;2023-07-08T00:33:49;5.63;;;3.33;;
30335;SDS011;17142;47.990;7.846;2023-07-08T00:36:15;10.07;;;3.73;;
30335;SDS011;17142;47.990;7.846;2023-07-08T00:38:42;8.43;;;3.47;;
30335;SDS011;17142;47.990;7.846;2023-07-08T00:41:16;8.83;;;4.03;;
30335;SDS011;17142;47.990;7.846;2023-07-08T00:51:32;5.37;;;3.10;;
30335;SDS011;17142;47.990;7.846;2023-07-08T00:53:59;7.37;;;4.00;;
30335;SDS011;17142;47.990;7.846;2023-07-08T00:56:29;7.63;;;3.90;;
30335;SDS011;17142;47.990;7.846;2023-07-08T00:59:03;9.53;;;4.40;;
30335;SDS011;17142;47.990;7.846;2023-07-08T01:01:32;5.10;;;4.00;;
30335;SDS011;17142;47.990;7.846;2023-07-08T01:04:37;7.57;;;3.63;;
30335;SDS011;17142;47.990;7.846;2023-07-08T01:07:00;7.03;;;3.60;;
30335;SDS011;17142;47.990;7.846;2023-07-08T01:09:33;11.00;;;4.00;;
30335;SDS011;17142;47.990;7.846;2023-07-08T01:12:04;6.77;;;3.33;;
30335;SDS011;17142;47.990;7.846;2023-07-08T01:14:33;5.80;;;3.63;;
30335;SDS011;17142;47.990;7.846;2023-07-08T01:17:04;8.50;;;3.90;;
30335;SDS011;17142;47.990;7.846;2023-07-08T01:19:39;9.43;;;5.33;;
30335;SDS011;17142;47.990;7.846;2023-07-08T01:22:08;5.63;;;3.83;;
30335;SDS011;17142;47.990;7.846;2023-07-08T01:24:35;8.20;;;4.10;;
30335;SDS011;17142;47.990;7.846;2023-07-08T01:27:04;5.90;;;3.30;;
30335;SDS011;17142;47.990;7.846;2023-07-08T01:29:36;7.27;;;3.60;;
30335;SDS011;17142;47.990;7.846;2023-07-08T01:32:02;4.77;;;3.70;;
30335;SDS011;17142;47.990;7.846;2023-07-08T01:34:32;5.97;;;4.40;;
30335;SDS011;17142;47.990;7.846;2023-07-08T01:36:59;7.23;;;3.17;;
30335;SDS011;17142;47.990;7.846;2023-07-08T01:39:30;7.47;;;3.37;;
30335;SDS011;17142;47.990;7.846;2023-07-08T01:41:57;7.30;;;3.43;;
30335;SDS011;17142;47.990;7.846;2023-07-08T01:46:55;10.93;;;3.70;;
30335;SDS011;17142;47.990;7.846;2023-07-08T01:49:27;8.80;;;4.30;;
30335;SDS011;17142;47.990;7.846;2023-07-08T01:51:54;7.40;;;3.33;;
30335;SDS011;17142;47.990;7.846;2023-07-08T01:54:21;7.20;;;4.17;;
30335;SDS011;17142;47.990;7.846;2023-07-08T01:56:46;6.87;;;2.93;;
30335;SDS011;17142;47.990;7.846;2023-07-08T01:59:16;9.17;;;5.10;;
30335;SDS011;17142;47.990;7.846;2023-07-08T02:01:42;5.83;;;3.60;;
30335;SDS011;17142;47.990;7.846;2023-07-08T02:04:07;7.30;;;4.27;;
30335;SDS011;17142;47.990;7.846;2023-07-08T02:06:35;5.10;;;3.70;;
30335;SDS011;17142;47.990;7.846;2023-07-08T02:09:01;6.60;;;4.07;;
30335;SDS011;17142;47.990;7.846;2023-07-08T02:11:27;8.00;;;4.00;;
30335;SDS011;17142;47.990;7.846;2023-07-08T02:13:53;11.07;;;4.33;;
30335;SDS011;17142;47.990;7.846;2023-07-08T02:16:19;7.43;;;4.70;;
30335;SDS011;17142;47.990;7.846;2023-07-08T02:18:44;4.43;;;3.20;;
30335;SDS011;17142;47.990;7.846;2023-07-08T02:21:10;5.80;;;2.97;;
30335;SDS011;17142;47.990;7.846;2023-07-08T02:23:37;5.50;;;3.33;;
30335;SDS011;17142;47.990;7.846;2023-07-08T02:26:03;5.43;;;4.40;;
30335;SDS011;17142;47.990;7.846;2023-07-08T02:28:28;5.33;;;3.23;;
30335;SDS011;17142;47.990;7.846;2023-07-08T02:31:01;10.93;;;3.60;;
30335;SDS011;17142;47.990;7.846;2023-07-08T02:33:27;10.83;;;3.50;;
30335;SDS011;17142;47.990;7.846;2023-07-08T02:35:57;7.60;;;3.20;;
30335;SDS011;17142;47.990;7.846;2023-07-08T02:38:26;6.23;;;4.10;;
30335;SDS011;17142;47.990;7.846;2023-07-08T02:40:52;5.37;;;3.83;;
30335;SDS011;17142;47.990;7.846;2023-07-08T02:43:17;6.20;;;3.50;;
30335;SDS011;17142;47.990;7.846;2023-07-08T02:45:48;5.93;;;4.03;;
30335;SDS011;17142;47.990;7.846;2023-07-08T02:48:17;6.33;;;4.17;;
30335;SDS011;17142;47.990;7.846;2023-07-08T02:50:43;10.57;;;4.33;;
30335;SDS011;17142;47.990;7.846;2023-07-08T02:53:12;5.87;;;3.70;;
30335;SDS011;17142;47.990;7.846;2023-07-08T02:55:40;10.27;;;3.90;;
30335;SDS011;17142;47.990;7.846;2023-07-08T02:58:08;6.47;;;3.80;;
30335;SDS011;17142;47.990;7.846;2023-07-08T03:00:34;4.37;;;3.73;;
30335;SDS011;17142;47.990;7.846;2023-07-08T03:03:04;8.20;;;4.53;;
30335;SDS011;17142;47.990;7.846;2023-07-08T03:05:32;8.93;;;4.10;;
30335;SDS011;17142;47.990;7.846;2023-07-08T03:07:59;5.63;;;3.67;;
30335;SDS011;17142;47.990;7.846;2023-07-08T03:10:24;7.23;;;3.93;;
30335;SDS011;17142;47.990;7.846;2023-07-08T03:12:51;6.67;;;4.17;;
30335;SDS011;17142;47.990;7.846;2023-07-08T03:15:16;6.60;;;4.23;;
30335;SDS011;17142;47.990;7.846;2023-07-08T03:17:42;7.63;;;4.00;;
30335;SDS011;17142;47.990;7.846;2023-07-08T03:20:09;10.50;;;4.67;;
30335;SDS011;17142;47.990;7.846;2023-07-08T03:22:36;9.23;;;5.50;;
30335;SDS011;17142;47.990;7.846;2023-07-08T03:25:04;6.23;;;3.90;;
30335;SDS011;17142;47.990;7.846;2023-07-08T03:27:32;6.20;;;3.83;;
30335;SDS011;17142;47.990;7.846;2023-07-08T03:30:00;14.07;;;4.87;;
30335;SDS011;17142;47.990;7.846;2023-07-08T03:32:30;7.83;;;4.97;;
30335;SDS011;17142;47.990;7.846;2023-07-08T03:34:55;9.50;;;5.10;;
30335;SDS011;17142;47.990;7.846;2023-07-08T03:37:24;7.03;;;4.47;;
30335;SDS011;17142;47.990;7.846;2023-07-08T03:39:49;7.87;;;4.23;;
30335;SDS011;17142;47.990;7.846;2023-07-08T03:42:15;6.70;;;4.20;;
30335;SDS011;17142;47.990;7.846;2023-07-08T03:44:43;5.90;;;3.83;;
30335;SDS011;17142;47.990;7.846;2023-07-08T03:47:11;4.80;;;3.17;;
30335;SDS011;17142;47.990;7.846;2023-07-08T03:49:36;4.23;;;2.67;;
30335;SDS011;17142;47.990;7.846;2023-07-08T03:52:02;3.70;;;2.40;;
30335;SDS011;17142;47.990;7.846;2023-07-08T03:54:31;6.17;;;3.53;;
30335;SDS011;17142;47.990;7.846;2023-07-08T03:56:56;8.13;;;3.60;;
30335;SDS011;17142;47.990;7.846;2023-07-08T03:59:22;5.10;;;3.50;;
30335;SDS011;17142;47.990;7.846;2023-07-08T04:01:50;5.60;;;3.30;;
30335;SDS011;17142;47.990;7.846;2023-07-08T04:04:16;5.80;;;3.40;;
30335;SDS011;17142;47.990;7.846;2023-07-08T04:06:44;6.60;;;3.03;;
30335;SDS011;17142;47.990;7.846;2023-07-08T04:09:11;5.50;;;3.67;;
30335;SDS011;17142;47.990;7.846;2023-07-08T04:11:40;7.23;;;3.57;;
30335;SDS011;17142;47.990;7.846;2023-07-08T04:14:07;4.67;;;2.90;;
30335;SDS011;17142;47.990;7.846;2023-07-08T04:16:42;5.43;;;3.30;;
30335;SDS011;17142;47.990;7.846;2023-07-08T04:19:15;7.97;;;3.10;;
30335;SDS011;17142;47.990;7.846;2023-07-08T04:21:41;5.57;;;3.80;;
30335;SDS011;17142;47.990;7.846;2023-07-08T04:24:11;5.97;;;3.07;;
30335;SDS011;17142;47.990;7.846;2023-07-08T04:26:39;8.67;;;3.70;;
30335;SDS011;17142;47.990;7.846;2023-07-08T04:29:11;5.60;;;3.50;;
30335;SDS011;17142;47.990;7.846;2023-07-08T04:31:37;7.30;;;3.63;;
30335;SDS011;17142;47.990;7.846;2023-07-08T04:34:03;3.80;;;2.90;;
30335;SDS011;17142;47.990;7.846;2023-07-08T04:36:29;6.50;;;3.77;;
30335;SDS011;17142;47.990;7.846;2023-07-08T04:38:55;8.90;;;3.97;;
30335;SDS011;17142;47.990;7.846;2023-07-08T04:41:25;5.23;;;3.43;;
30335;SDS011;17142;47.990;7.846;2023-07-08T04:43:51;5.77;;;3.40;;
30335;SDS011;17142;47.990;7.846;2023-07-08T04:49:19;3.10;;;1.83;;
30335;SDS011;17142;47.990;7.846;2023-07-08T04:51:46;2.50;;;1.80;;
30335;SDS011;17142;47.990;7.846;2023-07-08T04:54:12;2.70;;;1.90;;
30335;SDS011;17142;47.990;7.846;2023-07-08T04:56:39;7.53;;;3.10;;
30335;SDS011;17142;47.990;7.846;2023-07-08T04:59:09;5.30;;;2.00;;
30335;SDS011;17142;47.990;7.846;2023-07-08T05:01:37;5.73;;;1.83;;
30335;SDS011;17142;47.990;7.846;2023-07-08T05:04:09;3.33;;;2.40;;
30335;SDS011;17142;47.990;7.846;2023-07-08T05:06:37;3.00;;;2.07;;
30335;SDS011;17142;47.990;7.846;2023-07-08T05:09:05;4.40;;;2.00;;
30335;SDS011;17142;47.990;7.846;2023-07-08T05:11:33;2.70;;;1.93;;
30335;SDS011;17142;47.990;7.846;2023-07-08T05:13:59;6.10;;;2.60;;
30335;SDS011;17142;47.990;7.846;2023-07-08T05:16:25;6.00;;;3.47;;
30335;SDS011;17142;47.990;7.846;2023-07-08T05:18:51;9.07;;;3.43;;
30335;SDS011;17142;47.990;7.846;2023-07-08T05:21:18;8.53;;;3.37;;
30335;SDS011;17142;47.990;7.846;2023-07-08T05:23:44;5.03;;;2.60;;
30335;SDS011;17142;47.990;7.846;2023-07-08T05:26:10;6.03;;;3.80;;
30335;SDS011;17142;47.990;7.846;2023-07-08T05:28:38;6.17;;;2.70;;
30335;SDS011;17142;47.990;7.846;2023-07-08T05:31:04;3.90;;;3.00;;
30335;SDS011;17142;47.990;7.846;2023-07-08T05:33:30;4.60;;;2.60;;
30335;SDS011;17142;47.990;7.846;2023-07-08T05:35:59;5.13;;;2.23;;
30335;SDS011;17142;47.990;7.846;2023-07-08T05:38:27;8.33;;;2.83;;
30335;SDS011;17142;47.990;7.846;2023-07-08T05:40:54;3.37;;;2.07;;
30335;SDS011;17142;47.990;7.846;2023-07-08T05:43:20;4.37;;;3.20;;
30335;SDS011;17142;47.990;7.846;2023-07-08T05:45:48;2.60;;;2.20;;
30335;SDS011;17142;47.990;7.846;2023-07-08T05:48:14;3.90;;;1.93;;
30335;SDS011;17142;47.990;7.846;2023-07-08T05:50:40;5.00;;;1.73;;
30335;SDS011;17142;47.990;7.846;2023-07-08T05:53:08;7.53;;;3.03;;
30335;SDS011;17142;47.990;7.846;2023-07-08T05:55:39;3.57;;;2.20;;
30335;SDS011;17142;47.990;7.846;2023-07-08T05:58:07;5.73;;;2.80;;
30335;SDS011;17142;47.990;7.846;2023-07-08T06:00:35;5.60;;;2.10;;
30335;SDS011;17142;47.990;7.846;2023-07-08T06:03:05;4.10;;;1.93;;
30335;SDS011;17142;47.990;7.846;2023-07-08T06:05:31;5.70;;;2.37;;
30335;SDS011;17142;47.990;7.846;2023-07-08T06:07:58;3.67;;;1.87;;
30335;SDS011;17142;47.990;7.846;2023-07-08T06:10:24;3.03;;;1.93;;
30335;SDS011;17142;47.990;7.846;2023-07-08T06:12:50;3.20;;;1.97;;
30335;SDS011;17142;47.990;7.846;2023-07-08T06:15:15;3.83;;;1.73;;
30335;SDS011;17142;47.990;7.846;2023-07-08T06:17:41;1.77;;;1.40;;
30335;SDS011;17142;47.990;7.846;2023-07-08T06:20:07;4.20;;;1.80;;
30335;SDS011;17142;47.990;7.846;2023-07-08T06:22:33;1.83;;;1.50;;
30335;SDS011;17142;47.990;7.846;2023-07-08T06:25:01;2.53;;;1.80;;
30335;SDS011;17142;47.990;7.846;2023-07-08T06:27:29;2.93;;;1.90;;
30335;SDS011;17142;47.990;7.846;2023-07-08T06:29:54;2.30;;;1.90;;
30335;SDS011;17142;47.990;7.846;2023-07-08T06:32:20;5.17;;;2.37;;
30335;SDS011;17142;47.990;7.846;2023-07-08T06:34:46;4.60;;;2.27;;
30335;SDS011;17142;47.990;7.846;2023-07-08T06:37:11;2.73;;;1.90;;
30335;SDS011;17142;47.990;7.846;2023-07-08T06:39:37;3.30;;;1.63;;
30335;SDS011;17142;47.990;7.846;2023-07-08T06:42:07;3.93;;;1.53;;
30335;SDS011;17142;47.990;7.846;2023-07-08T06:44:33;2.73;;;1.50;;
30335;SDS011;17142;47.990;7.846;2023-07-08T06:46:59;3.60;;;2.00;;
30335;SDS011;17142;47.990;7.846;2023-07-08T06:49:27;3.03;;;1.50;;
30335;SDS011;17142;47.990;7.846;2023-07-08T06:51:57;3.83;;;1.67;;
30335;SDS011;17142;47.990;7.846;2023-07-08T06:54:24;5.47;;;3.07;;
30335;SDS011;17142;47.990;7.846;2023-07-08T06:56:50;3.30;;;1.80;;
30335;SDS011;17142;47.990;7.846;2023-07-08T06:59:16;4.93;;;3.80;;
30335;SDS011;17142;47.990;7.846;2023-07-08T07:01:43;3.87;;;2.07;;
30335;SDS011;17142;47.990;7.846;2023-07-08T07:04:12;2.70;;;1.70;;
30335;SDS011;17142;47.990;7.846;2023-07-08T07:06:37;3.27;;;1.90;;
30335;SDS011;17142;47.990;7.846;2023-07-08T07:09:03;4.67;;;2.03;;
30335;SDS011;17142;47.990;7.846;2023-07-08T07:11:29;3.13;;;1.40;;
30335;SDS011;17142;47.990;7.846;2023-07-08T07:13:54;5.33;;;1.53;;
30335;SDS011;17142;47.990;7.846;2023-07-08T07:16:22;1.63;;;1.33;;
30335;SDS011;17142;47.990;7.846;2023-07-08T07:18:48;3.50;;;1.60;;
30335;SDS011;17142;47.990;7.846;2023-07-08T07:21:16;2.87;;;1.60;;
30335;SDS011;17142;47.990;7.846;2023-07-08T07:23:42;5.50;;;2.00;;
30335;SDS011;17142;47.990;7.846;2023-07-08T07:26:08;2.77;;;1.30;;
30335;SDS011;17142;47.990;7.846;2023-07-08T07:28:34;3.77;;;2.00;;
30335;SDS011;17142;47.990;7.846;2023-07-08T07:30:59;3.80;;;1.83;;
30335;SDS011;17142;47.990;7.846;2023-07-08T07:33:25;3.03;;;1.30;;
30335;SDS011;17142;47.990;7.846;2023-07-08T07:35:52;2.40;;;1.40;;
30335;SDS011;17142;47.990;7.846;2023-07-08T07:38:17;3.33;;;1.80;;
30335;SDS011;17142;47.990;7.846;2023-07-08T07:40:43;2.17;;;1.60;;
30335;SDS011;17142;47.990;7.846;2023-07-08T07:43:12;2.57;;;1.20;;
30335;SDS011;17142;47.990;7.846;2023-07-08T07:45:39;3.33;;;1.40;;
30335;SDS011;17142;47.990;7.846;2023-07-08T07:48:05;2.60;;;1.67;;
30335;SDS011;17142;47.990;7.846;2023-07-08T07:50:33;2.03;;;1.33;;
30335;SDS011;17142;47.990;7.846;2023-07-08T07:53:02;3.50;;;1.90;;
30335;SDS011;17142;47.990;7.846;2023-07-08T07:55:27;3.20;;;1.80;;
30335;SDS011;17142;47.990;7.846;2023-07-08T07:58:00;1.37;;;1.27;;
30335;SDS011;17142;47.990;7.846;2023-07-08T08:00:26;3.00;;;1.70;;
30335;SDS011;17142;47.990;7.846;2023-07-08T08:02:55;3.10;;;1.80;;
30335;SDS011;17142;47.990;7.846;2023-07-08T08:05:25;3.27;;;2.03;;
30335;SDS011;17142;47.990;7.846;2023-07-08T08:07:50;2.37;;;1.50;;
30335;SDS011;17142;47.990;7.846;2023-07-08T08:10:16;4.00;;;1.73;;
30335;SDS011;17142;47.990;7.846;2023-07-08T08:12:42;4.13;;;2.73;;
30335;SDS011;17142;47.990;7.846;2023-07-08T08:15:07;3.77;;;2.33;;
30335;SDS011;17142;47.990;7.846;2023-07-08T08:17:36;2.90;;;1.67;;
30335;SDS011;17142;47.990;7.846;2023-07-08T08:20:01;2.40;;;1.73;;
30335;SDS011;17142;47.990;7.846;2023-07-08T08:22:30;3.70;;;1.87;;
30335;SDS011;17142;47.990;7.846;2023-07-08T08:25:00;3.13;;;2.10;;
30335;SDS011;17142;47.990;7.846;2023-07-08T08:27:27;1.83;;;1.47;;
30335;SDS011;17142;47.990;7.846;2023-07-08T08:29:52;3.60;;;1.87;;
30335;SDS011;17142;47.990;7.846;2023-07-08T08:32:18;3.57;;;2.90;;
30335;SDS011;17142;47.990;7.846;2023-07-08T08:34:43;3.37;;;1.90;;
30335;SDS011;17142;47.990;7.846;2023-07-08T08:37:10;3.00;;;2.07;;
30335;SDS011;17142;47.990;7.846;2023-07-08T08:39:35;2.37;;;1.67;;
30335;SDS011;17142;47.990;7.846;2023-07-08T08:42:01;5.63;;;2.00;;
30335;SDS011;17142;47.990;7.846;2023-07-08T08:44:34;4.97;;;2.10;;
30335;SDS011;17142;47.990;7.846;2023-07-08T08:47:19;4.93;;;2.40;;
30335;SDS011;17142;47.990;7.846;2023-07-08T08:50:01;4.00;;;2.33;;
30335;SDS011;17142;47.990;7.846;2023-07-08T08:52:44;2.43;;;1.83;;
30335;SDS011;17142;47.990;7.846;2023-07-08T08:55:13;2.33;;;1.47;;
30335;SDS011;17142;47.990;7.846;2023-07-08T08:57:43;1.87;;;1.50;;
30335;SDS011;17142;47.990;7.846;2023-07-08T09:00:16;2.50;;;1.80;;
30335;SDS011;17142;47.990;7.846;2023-07-08T09:05:24;4.13;;;2.10;;
30335;SDS011;17142;47.990;7.846;2023-07-08T09:13:39;2.40;;;1.60;;
30335;SDS011;17142;47.990;7.846;2023-07-08T09:18:56;2.10;;;1.90;;
30335;SDS011;17142;47.990;7.846;2023-07-08T09:21:24;2.60;;;2.00;;
30335;SDS011;17142;47.990;7.846;2023-07-08T09:24:03;4.60;;;1.90;;
30335;SDS011;17142;47.990;7.846;2023-07-08T09:26:40;3.57;;;1.70;;
30335;SDS011;17142;47.990;7.846;2023-07-08T09:29:09;2.80;;;1.60;;
30335;SDS011;17142;47.990;7.846;2023-07-08T09:31:36;2.23;;;1.83;;
30335;SDS011;17142;47.990;7.846;2023-07-08T09:36:40;4.70;;;1.73;;
30335;SDS011;17142;47.990;7.846;2023-07-08T09:39:15;4.20;;;2.20;;
30335;SDS011;17142;47.990;7.846;2023-07-08T09:41:46;4.43;;;1.80;;
30335;SDS011;17142;47.990;7.846;2023-07-08T09:44:16;4.50;;;2.60;;
30335;SDS011;17142;47.990;7.846;2023-07-08T09:46:58;5.23;;;2.60;;
30335;SDS011;17142;47.990;7.846;2023-07-08T09:49:27;2.80;;;1.60;;
30335;SDS011;17142;47.990;7.846;2023-07-08T09:51:56;2.17;;;1.80;;
30335;SDS011;17142;47.990;7.846;2023-07-08T09:54:22;3.17;;;1.97;;
30335;SDS011;17142;47.990;7.846;2023-07-08T09:59:24;2.10;;;1.90;;
30335;SDS011;17142;47.990;7.846;2023-07-08T10:01:54;2.93;;;1.60;;
30335;SDS011;17142;47.990;7.846;2023-07-08T10:04:20;2.00;;;1.87;;
30335;SDS011;17142;47.990;7.846;2023-07-08T10:06:49;3.23;;;2.37;;
30335;SDS011;17142;47.990;7.846;2023-07-08T10:09:19;5.00;;;3.13;;
30335;SDS011;17142;47.990;7.846;2023-07-08T10:11:52;3.20;;;2.00;;
30335;SDS011;17142;47.990;7.846;2023-07-08T10:14:27;3.10;;;1.80;;
30335;SDS011;17142;47.990;7.846;2023-07-08T10:16:59;2.30;;;2.10;;
30335;SDS011;17142;47.990;7.846;2023-07-08T10:19:26;2.40;;;1.90;;
30335;SDS011;17142;47.990;7.846;2023-07-08T10:27:36;2.27;;;1.90;;
30335;SDS011;17142;47.990;7.846;2023-07-08T10:30:21;4.00;;;2.77;;
30335;SDS011;17142;47.990;7.846;2023-07-08T10:36:01;2.23;;;1.80;;
30335;SDS011;17142;47.990;7.846;2023-07-08T10:42:07;2.90;;;1.90;;
30335;SDS011;17142;47.990;7.846;2023-07-08T10:44:45;3.20;;;2.30;;
30335;SDS011;17142;47.990;7.846;2023-07-08T10:47:49;3.73;;;2.03;;
30335;SDS011;17142;47.990;7.846;2023-07-08T10:59:24;4.60;;;2.67;;
30335;SDS011;17142;47.990;7.846;2023-07-08T11:10:12;2.80;;;2.40;;
30335;SDS011;17142;47.990;7.846;2023-07-08T11:12:45;3.17;;;2.13;;
30335;SDS011;17142;47.990;7.846;2023-07-08T11:15:23;2.77;;;2.33;;
30335;SDS011;17142;47.990;7.846;2023-07-08T11:18:09;2.97;;;2.60;;
30335;SDS011;17142;47.990;7.846;2023-07-08T11:20:39;4.37;;;2.50;;
30335;SDS011;17142;47.990;7.846;2023-07-08T11:23:19;3.43;;;2.40;;
30335;SDS011;17142;47.990;7.846;2023-07-08T11:26:40;2.20;;;1.90;;
30335;SDS011;17142;47.990;7.846;2023-07-08T11:28:51;4.40;;;1.97;;
30335;SDS011;17142;47.990;7.846;2023-07-08T11:31:22;3.00;;;2.30;;
30335;SDS011;17142;47.990;7.846;2023-07-08T11:33:51;2.40;;;2.20;;
30335;SDS011;17142;47.990;7.846;2023-07-08T11:36:19;4.07;;;2.23;;
30335;SDS011;17142;47.990;7.846;2023-07-08T11:38:50;2.97;;;2.30;;
30335;SDS011;17142;47.990;7.846;2023-07-08T11:41:18;3.43;;;2.00;;
30335;SDS011;17142;47.990;7.846;2023-07-08T11:43:48;3.80;;;2.10;;
30335;SDS011;17142;47.990;7.846;2023-07-08T11:46:23;3.00;;;2.17;;
30335;SDS011;17142;47.990;7.846;2023-07-08T11:48:56;3.17;;;2.30;;
30335;SDS011;17142;47.990;7.846;2023-07-08T11:51:29;2.07;;;1.73;;
30335;SDS011;17142;47.990;7.846;2023-07-08T11:54:00;2.30;;;1.70;;
30335;SDS011;17142;47.990;7.846;2023-07-08T11:56:50;3.90;;;2.00;;
30335;SDS011;17142;47.990;7.846;2023-07-08T11:59:22;2.87;;;1.63;;
30335;SDS011;17142;47.990;7.846;2023-07-08T12:04:17;4.03;;;1.83;;
30335;SDS011;17142;47.990;7.846;2023-07-08T12:07:17;5.23;;;1.80;;
30335;SDS011;17142;47.990;7.846;2023-07-08T12:10:10;3.30;;;2.00;;
30335;SDS011;17142;47.990;7.846;2023-07-08T12:12:37;2.67;;;1.80;;
30335;SDS011;17142;47.990;7.846;2023-07-08T12:15:27;3.13;;;1.60;;
30335;SDS011;17142;47.990;7.846;2023-07-08T12:18:16;1.83;;;1.27;;
30335;SDS011;17142;47.990;7.846;2023-07-08T12:20:48;1.97;;;1.40;;
30335;SDS011;17142;47.990;7.846;2023-07-08T12:23:19;3.83;;;1.70;;
30335;SDS011;17142;47.990;7.846;2023-07-08T12:25:48;1.60;;;1.20;;
30335;SDS011;17142;47.990;7.846;2023-07-08T12:28:14;1.93;;;1.67;;
30335;SDS011;17142;47.990;7.846;2023-07-08T12:30:41;3.37;;;1.83;;
30335;SDS011;17142;47.990;7.846;2023-07-08T12:33:11;4.50;;;2.03;;
30335;SDS011;17142;47.990;7.846;2023-07-08T12:35:42;2.03;;;1.50;;
30335;SDS011;17142;47.990;7.846;2023-07-08T12:38:33;2.83;;;1.60;;
30335;SDS011;17142;47.990;7.846;2023-07-08T12:41:37;2.60;;;1.97;;
30335;SDS011;17142;47.990;7.846;2023-07-08T12:44:00;3.33;;;1.77;;
30335;SDS011;17142;47.990;7.846;2023-07-08T12:46:27;3.03;;;1.83;;
30335;SDS011;17142;47.990;7.846;2023-07-08T12:48:55;4.17;;;1.97;;
30335;SDS011;17142;47.990;7.846;2023-07-08T12:51:23;3.27;;;1.90;;
30335;SDS011;17142;47.990;7.846;2023-07-08T12:53:52;4.70;;;2.37;;
30335;SDS011;17142;47.990;7.846;2023-07-08T12:56:19;5.17;;;2.37;;
30335;SDS011;17142;47.990;7.846;2023-07-08T12:58:53;4.07;;;1.97;;
30335;SDS011;17142;47.990;7.846;2023-07-08T13:01:22;2.30;;;1.70;;
30335;SDS011;17142;47.990;7.846;2023-07-08T13:03:51;3.43;;;2.33;;
30335;SDS011;17142;47.990;7.846;2023-07-08T13:06:20;2.00;;;1.50;;
30335;SDS011;17142;47.990;7.846;2023-07-08T13:08:52;2.73;;;2.30;;
30335;SDS011;17142;47.990;7.846;2023-07-08T13:11:22;3.17;;;1.97;;
30335;SDS011;17142;47.990;7.846;2023-07-08T13:13:52;1.83;;;1.70;;
30335;SDS011;17142;47.990;7.846;2023-07-08T13:16:22;2.00;;;1.73;;
30335;SDS011;17142;47.990;7.846;2023-07-08T13:18:52;3.27;;;2.13;;
30335;SDS011;17142;47.990;7.846;2023-07-08T13:21:18;5.03;;;2.50;;
30335;SDS011;17142;47.990;7.846;2023-07-08T13:23:44;6.30;;;2.57;;
30335;SDS011;17142;47.990;7.846;2023-07-08T13:26:14;2.67;;;2.00;;
30335;SDS011;17142;47.990;7.846;2023-07-08T13:28:45;4.27;;;2.30;;
30335;SDS011;17142;47.990;7.846;2023-07-08T13:31:21;3.07;;;1.90;;
30335;SDS011;17142;47.990;7.846;2023-07-08T13:33:51;2.17;;;1.93;;
30335;SDS011;17142;47.990;7.846;2023-07-08T13:36:19;3.60;;;2.17;;
30335;SDS011;17142;47.990;7.846;2023-07-08T13:38:48;5.03;;;3.40;;
30335;SDS011;17142;47.990;7.846;2023-07-08T13:41:21;6.47;;;2.30;;
30335;SDS011;17142;47.990;7.846;2023-07-08T13:43:48;2.10;;;1.87;;
30335;SDS011;17142;47.990;7.846;2023-07-08T13:49:44;2.90;;;2.60;;
30335;SDS011;17142;47.990;7.846;2023-07-08T13:51:44;3.83;;;2.40;;
30335;SDS011;17142;47.990;7.846;2023-07-08T13:54:19;5.90;;;2.47;;
30335;SDS011;17142;47.990;7.846;2023-07-08T13:56:47;3.40;;;2.40;;
30335;SDS011;17142;47.990;7.846;2023-07-08T13:59:18;5.43;;;2.70;;
30335;SDS011;17142;47.990;7.846;2023-07-08T14:01:48;5.20;;;2.80;;
30335;SDS011;17142;47.990;7.846;2023-07-08T14:04:18;2.70;;;2.17;;
30335;SDS011;17142;47.990;7.846;2023-07-08T14:06:54;4.20;;;2.63;;
30335;SDS011;17142;47.990;7.846;2023-07-08T14:09:21;3.90;;;2.40;;
30335;SDS011;17142;47.990;7.846;2023-07-08T14:11:50;4.77;;;2.50;;
30335;SDS011;17142;47.990;7.846;2023-07-08T14:14:19;5.10;;;2.73;;
30335;SDS011;17142;47.990;7.846;2023-07-08T14:16:51;3.90;;;2.77;;
30335;SDS011;17142;47.990;7.846;2023-07-08T14:19:22;5.40;;;3.20;;
30335;SDS011;17142;47.990;7.846;2023-07-08T14:21:54;4.00;;;2.60;;
30335;SDS011;17142;47.990;7.846;2023-07-08T14:24:22;5.90;;;2.90;;
30335;SDS011;17142;47.990;7.846;2023-07-08T14:26:47;4.10;;;3.17;;
30335;SDS011;17142;47.990;7.846;2023-07-08T14:29:13;5.43;;;2.77;;
30335;SDS011;17142;47.990;7.846;2023-07-08T14:31:41;3.33;;;2.30;;
30335;SDS011;17142;47.990;7.846;2023-07-08T14:34:09;5.63;;;2.63;;
30335;SDS011;17142;47.990;7.846;2023-07-08T14:36:47;4.37;;;3.00;;
30335;SDS011;17142;47.990;7.846;2023-07-08T14:39:15;2.60;;;2.30;;
30335;SDS011;17142;47.990;7.846;2023-07-08T14:41:42;5.03;;;3.00;;
30335;SDS011;17142;47.990;7.846;2023-07-08T14:44:25;5.37;;;2.53;;
30335;SDS011;17142;47.990;7.846;2023-07-08T14:46:59;6.30;;;2.60;;
30335;SDS011;17142;47.990;7.846;2023-07-08T14:49:26;3.83;;;2.83;;
30335;SDS011;17142;47.990;7.846;2023-07-08T14:51:54;3.83;;;2.73;;
30335;SDS011;17142;47.990;7.846;2023-07-08T14:54:20;5.20;;;3.63;;
30335;SDS011;17142;47.990;7.846;2023-07-08T14:56:46;5.23;;;2.87;;
30335;SDS011;17142;47.990;7.846;2023-07-08T14:59:20;5.97;;;3.67;;
30335;SDS011;17142;47.990;7.846;2023-07-08T15:01:52;5.20;;;2.93;;
30335;SDS011;17142;47.990;7.846;2023-07-08T15:04:22;3.33;;;2.20;;
30335;SDS011;17142;47.990;7.846;2023-07-08T15:06:48;7.47;;;3.93;;
30335;SDS011;17142;47.990;7.846;2023-07-08T15:09:15;5.37;;;2.87;;
30335;SDS011;17142;47.990;7.846;2023-07-08T15:11:42;5.27;;;3.20;;
30335;SDS011;17142;47.990;7.846;2023-07-08T15:14:10;4.47;;;2.93;;
30335;SDS011;17142;47.990;7.846;2023-07-08T15:16:48;3.10;;;2.60;;
30335;SDS011;17142;47.990;7.846;2023-07-08T15:19:17;6.03;;;2.70;;
30335;SDS011;17142;47.990;7.846;2023-07-08T15:21:47;4.50;;;2.70;;
30335;SDS011;17142;47.990;7.846;2023-07-08T15:24:13;3.60;;;2.80;;
30335;SDS011;17142;47.990;7.846;2023-07-08T15:26:46;5.60;;;3.67;;
30335;SDS011;17142;47.990;7.846;2023-07-08T15:29:15;4.60;;;3.03;;
30335;SDS011;17142;47.990;7.846;2023-07-08T15:31:45;3.27;;;2.77;;
30335;SDS011;17142;47.990;7.846;2023-07-08T15:34:15;5.43;;;2.83;;
30335;SDS011;17142;47.990;7.846;2023-07-08T15:36:42;5.70;;;4.00;;
30335;SDS011;17142;47.990;7.846;2023-07-08T15:39:10;4.53;;;3.03;;
30335;SDS011;17142;47.990;7.846;2023-07-08T15:41:38;3.10;;;2.33;;
30335;SDS011;17142;47.990;7.846;2023-07-08T15:44:04;4.23;;;3.40;;
30335;SDS011;17142;47.990;7.846;2023-07-08T15:46:39;3.87;;;2.60;;
30335;SDS011;17142;47.990;7.846;2023-07-08T15:49:10;7.03;;;2.73;;
30335;SDS011;17142;47.990;7.846;2023-07-08T15:51:37;3.80;;;3.20;;
30335;SDS011;17142;47.990;7.846;2023-07-08T15:54:05;4.93;;;3.00;;
30335;SDS011;17142;47.990;7.846;2023-07-08T15:56:31;5.00;;;3.10;;
30335;SDS011;17142;47.990;7.846;2023-07-08T15:58:57;8.97;;;3.10;;
30335;SDS011;17142;47.990;7.846;2023-07-08T16:01:23;3.87;;;3.10;;
30335;SDS011;17142;47.990;7.846;2023-07-08T16:03:50;4.90;;;2.83;;
30335;SDS011;17142;47.990;7.846;2023-07-08T16:06:16;4.57;;;2.97;;